Time;durP1;ratioP1;P1;durP2;ratioP2;P2;SDS_P1;SDS_P2;PMS_P1;PMS_P2;Temp;Humidity;BMP_temperature;BMP_pressure;BME280_temperature;BME280_humidity;BME280_pressure;Samples;Min_cycle;Max_cycle;Signal;HPM_P1;HPM_P2
2021/12/25 00:00:22;;;;;;;3.03;0.45;;;0.40;99.90;;;;;;5074381;28;20506;-75
2021/12/25 00:02:48;;;;;;;3.28;0.60;;;-0.70;99.90;;;;;;5058512;28;20040;-74
2021/12/25 00:05:15;;;;;;;2.80;0.60;;;-0.80;99.90;;;;;;5071266;28;20071;-73
2021/12/25 00:07:40;;;;;;;3.08;0.60;;;-0.10;99.90;;;;;;5074850;28;20040;-73
2021/12/25 00:10:08;;;;;;;4.38;1.02;;;-0.80;99.90;;;;;;5063148;28;20048;-74
2021/12/25 00:12:34;;;;;;;2.58;0.80;;;-0.90;99.90;;;;;;5034957;28;20048;-73
2021/12/25 00:15:00;;;;;;;2.92;0.50;;;-0.90;99.90;;;;;;5052973;28;20040;-73
2021/12/25 00:17:27;;;;;;;3.03;0.57;;;-0.20;99.90;;;;;;5051043;28;20075;-73
2021/12/25 00:19:53;;;;;;;3.90;0.50;;;-1.00;99.90;;;;;;5057612;28;20536;-73
2021/12/25 00:22:21;;;;;;;1.45;0.50;;;-0.70;99.90;;;;;;5056241;28;20477;-73
2021/12/25 00:24:47;;;;;;;2.45;0.50;;;-1.10;99.90;;;;;;5054159;28;20052;-74
2021/12/25 00:34:50;;;;;;;1.55;0.50;;;-1.20;99.90;;;;;;5050570;28;20048;-74
2021/12/25 00:37:16;;;;;;;3.60;0.50;;;-1.20;99.90;;;;;;5043314;28;20538;-73
2021/12/25 00:39:43;;;;;;;0.77;0.35;;;-1.20;99.90;;;;;;5068351;28;20041;-74
2021/12/25 00:42:11;;;;;;;2.45;0.75;;;-0.70;99.90;;;;;;5052212;28;20088;-73
2021/12/25 00:44:37;;;;;;;2.10;0.55;;;-1.30;99.90;;;;;;5037460;28;20052;-73
2021/12/25 00:47:04;;;;;;;1.20;0.50;;;-0.80;99.90;;;;;;5046199;28;20036;-74
2021/12/25 00:49:30;;;;;;;2.08;0.52;;;-1.40;99.90;;;;;;5035419;28;20141;-73
2021/12/25 00:51:56;;;;;;;2.53;0.57;;;-1.40;99.90;;;;;;5057872;28;20123;-73
2021/12/25 00:54:22;;;;;;;5.63;0.85;;;-0.60;99.90;;;;;;5060309;28;20120;-73
2021/12/25 00:56:48;;;;;;;0.68;0.30;;;-1.50;99.90;;;;;;5050157;28;20492;-74
2021/12/25 00:59:14;;;;;;;0.93;0.40;;;-1.50;99.90;;;;;;5034153;28;20056;-74
2021/12/25 01:01:40;;;;;;;4.07;0.40;;;-1.60;99.90;;;;;;5051139;28;20052;-74
2021/12/25 01:04:06;;;;;;;2.22;0.40;;;-1.60;99.90;;;;;;5071501;28;20063;-74
2021/12/25 01:06:32;;;;;;;5.00;0.47;;;-1.60;99.90;;;;;;5052114;28;20413;-73
2021/12/25 01:08:58;;;;;;;3.40;0.40;;;-1.60;99.90;;;;;;5036297;28;20056;-73
2021/12/25 01:11:26;;;;;;;2.17;0.50;;;-1.70;99.90;;;;;;5069531;28;20060;-73
2021/12/25 01:13:59;;;;;;;1.50;0.40;;;-0.60;99.90;;;;;;5071082;28;20154;-73
2021/12/25 01:24:59;;;;;;;;;;;-1.00;99.90;;;;;;5073630;28;20044;-72
2021/12/25 01:48:16;;;;;;;1.45;0.50;;;-2.00;99.90;;;;;;5059820;28;20123;-71
2021/12/25 01:50:45;;;;;;;1.10;0.50;;;-2.10;99.90;;;;;;5070723;28;20047;-71
2021/12/25 01:53:12;;;;;;;2.40;0.50;;;-2.10;99.90;;;;;;5070282;28;20044;-72
2021/12/25 01:55:37;;;;;;;1.60;0.60;;;-2.10;99.90;;;;;;5055574;28;20047;-72
2021/12/25 01:58:04;;;;;;;2.33;0.60;;;-1.50;99.90;;;;;;5054753;28;20048;-72
2021/12/25 02:00:46;;;;;;;1.20;0.50;;;-2.20;99.90;;;;;;5038607;28;20124;-73
2021/12/25 02:03:14;;;;;;;3.70;0.60;;;-2.20;99.90;;;;;;5049999;28;20048;-72
2021/12/25 02:05:40;;;;;;;2.00;0.73;;;-2.20;99.90;;;;;;5070859;28;20039;-72
2021/12/25 02:08:05;;;;;;;1.85;0.43;;;-1.40;99.90;;;;;;5068600;28;20055;-72
2021/12/25 02:10:32;;;;;;;1.02;0.40;;;-2.20;99.90;;;;;;5055183;28;20451;-71
2021/12/25 02:12:58;;;;;;;1.42;0.40;;;-2.30;99.90;;;;;;5053025;28;20098;-71
2021/12/25 02:15:26;;;;;;;2.55;0.45;;;-2.30;99.90;;;;;;5074151;28;20032;-71
2021/12/25 02:18:07;;;;;;;2.35;0.50;;;-2.30;99.90;;;;;;5051427;28;20484;-71
2021/12/25 02:20:53;;;;;;;2.42;0.40;;;-2.30;99.90;;;;;;5055456;28;20048;-72
2021/12/25 02:23:22;;;;;;;1.13;0.40;;;-2.30;99.90;;;;;;5072336;28;20044;-71
2021/12/25 02:25:54;;;;;;;2.15;0.60;;;-1.90;99.90;;;;;;5071566;28;20040;-72
2021/12/25 02:28:22;;;;;;;0.95;0.40;;;-1.60;99.90;;;;;;5072195;28;20591;-71
2021/12/25 02:30:51;;;;;;;1.48;0.50;;;-2.30;99.90;;;;;;5053878;28;20050;-70
2021/12/25 02:33:17;;;;;;;0.85;0.50;;;-2.20;99.90;;;;;;5071077;28;20044;-71
2021/12/25 02:35:44;;;;;;;1.10;0.40;;;-2.40;99.90;;;;;;5054308;28;20040;-71
2021/12/25 02:38:10;;;;;;;1.48;0.50;;;-2.40;99.90;;;;;;5071320;28;20047;-70
2021/12/25 02:40:36;;;;;;;2.28;0.50;;;-2.40;99.90;;;;;;5055256;28;20048;-70
2021/12/25 02:43:02;;;;;;;2.10;0.40;;;-2.40;99.90;;;;;;5066747;28;20055;-71
2021/12/25 02:45:27;;;;;;;1.25;0.85;;;-2.40;99.90;;;;;;5071719;28;20079;-70
2021/12/25 02:47:56;;;;;;;2.70;0.40;;;-2.50;99.90;;;;;;5069237;28;20040;-71
2021/12/25 02:50:27;;;;;;;0.38;0.30;;;-2.50;99.90;;;;;;5071291;28;20094;-70
2021/12/25 02:52:55;;;;;;;1.25;0.35;;;-2.50;99.90;;;;;;5069728;28;20047;-70
2021/12/25 02:55:21;;;;;;;2.95;0.40;;;-2.60;99.90;;;;;;5072069;28;20052;-70
2021/12/25 02:57:51;;;;;;;1.60;0.50;;;-2.60;99.90;;;;;;5072297;28;20047;-69
2021/12/25 03:00:32;;;;;;;3.45;0.50;;;-2.60;99.90;;;;;;5072531;28;20612;-70
2021/12/25 03:03:00;;;;;;;0.85;0.40;;;-2.70;99.90;;;;;;5071978;28;20035;-70
2021/12/25 03:05:26;;;;;;;1.10;0.40;;;-2.70;99.90;;;;;;5072759;28;20127;-69
2021/12/25 03:07:52;;;;;;;1.23;0.40;;;-2.80;99.90;;;;;;5055410;28;20079;-69
2021/12/25 03:10:19;;;;;;;3.03;0.43;;;-1.70;99.90;;;;;;5058401;28;20109;-69
2021/12/25 03:13:16;;;;;;;1.23;0.60;;;-2.70;99.90;;;;;;5073809;28;20126;-70
2021/12/25 03:15:46;;;;;;;0.73;0.40;;;-2.30;99.90;;;;;;5075992;28;20062;-70
2021/12/25 03:18:20;;;;;;;1.48;0.55;;;-2.80;99.90;;;;;;5075382;28;20056;-69
2021/12/25 03:20:48;;;;;;;2.10;0.50;;;-2.80;99.90;;;;;;5075950;28;20048;-70
2021/12/25 03:23:19;;;;;;;2.15;0.43;;;-2.90;99.90;;;;;;5073737;28;20113;-72
2021/12/25 03:25:48;;;;;;;3.22;0.85;;;-2.80;99.90;;;;;;5059246;28;20052;-70
2021/12/25 03:28:15;;;;;;;1.15;0.70;;;-2.90;99.90;;;;;;5075476;28;20987;-71
2021/12/25 03:30:41;;;;;;;1.15;0.50;;;-2.90;99.90;;;;;;5058704;28;20060;-69
2021/12/25 03:33:09;;;;;;;1.63;0.40;;;-2.90;99.90;;;;;;5041621;28;20500;-69
2021/12/25 03:35:35;;;;;;;1.27;0.40;;;-2.90;99.90;;;;;;5075314;28;20052;-69
2021/12/25 03:38:07;;;;;;;1.40;0.40;;;-2.90;99.90;;;;;;5058301;28;20044;-70
2021/12/25 03:40:33;;;;;;;4.30;0.52;;;-2.90;99.90;;;;;;5080622;28;20054;-70
2021/12/25 03:42:59;;;;;;;1.88;0.40;;;-2.90;99.90;;;;;;5075025;28;20044;-69
2021/12/25 03:45:29;;;;;;;1.50;0.50;;;-2.20;99.90;;;;;;5059196;28;21427;-69
2021/12/25 03:48:05;;;;;;;1.42;0.45;;;-3.00;99.90;;;;;;5075518;28;20060;-69
2021/12/25 03:58:45;;;;;;;0.95;0.40;;;-3.10;99.90;;;;;;5074558;28;20048;-69
2021/12/25 04:01:44;;;;;;;0.40;0.30;;;-3.10;99.90;;;;;;5075451;28;20044;-69
2021/12/25 04:06:44;;;;;;;1.17;0.40;;;-3.10;99.90;;;;;;5075053;28;20136;-69
2021/12/25 04:09:20;;;;;;;1.88;0.40;;;-3.10;99.90;;;;;;5058585;28;20058;-69
2021/12/25 04:11:46;;;;;;;1.45;0.50;;;-2.80;99.90;;;;;;5060236;28;20158;-70
2021/12/25 04:14:11;;;;;;;1.75;0.55;;;-3.10;99.90;;;;;;5056731;28;20509;-70
2021/12/25 04:16:37;;;;;;;2.22;0.30;;;-3.10;99.90;;;;;;5055921;28;20051;-70
2021/12/25 04:19:03;;;;;;;1.42;0.47;;;-3.20;99.90;;;;;;5057099;28;20572;-69
2021/12/25 04:21:29;;;;;;;1.98;0.43;;;-3.20;99.90;;;;;;5062514;28;20083;-69
2021/12/25 04:23:55;;;;;;;1.52;0.50;;;-3.20;99.90;;;;;;5038690;28;20083;-69
2021/12/25 04:26:23;;;;;;;3.20;0.50;;;-2.80;99.90;;;;;;5056823;28;20140;-70
2021/12/25 04:29:16;;;;;;;0.57;0.32;;;-3.30;99.90;;;;;;5060254;28;20092;-71
2021/12/25 04:32:02;;;;;;;0.93;0.40;;;-3.30;99.90;;;;;;5055189;28;20197;-70
2021/12/25 05:01:48;;;;;;;0.47;0.40;;;-3.60;99.90;;;;;;5057999;28;20048;-69
2021/12/25 05:04:20;;;;;;;2.33;0.40;;;-3.20;99.90;;;;;;5049507;28;20420;-71
2021/12/25 05:06:48;;;;;;;1.50;0.80;;;-3.60;99.90;;;;;;5054547;28;20048;-70
2021/12/25 05:09:13;;;;;;;1.08;0.35;;;-3.60;99.90;;;;;;5044198;28;20137;-70
2021/12/25 05:11:39;;;;;;;2.00;0.57;;;-3.30;99.90;;;;;;5061722;28;20057;-70
2021/12/25 05:14:05;;;;;;;1.75;0.45;;;-3.60;99.90;;;;;;5065156;28;20375;-70
2021/12/25 05:16:31;;;;;;;1.13;0.40;;;-3.10;99.90;;;;;;5021667;28;20040;-70
2021/12/25 05:18:56;;;;;;;1.48;0.57;;;-2.70;99.90;;;;;;5040618;28;20044;-69
2021/12/25 05:21:22;;;;;;;1.13;0.30;;;-2.90;99.90;;;;;;5054956;28;20062;-69
2021/12/25 05:23:48;;;;;;;2.50;0.43;;;-3.80;99.90;;;;;;5069255;28;20655;-69
2021/12/25 05:26:15;;;;;;;2.03;0.47;;;-2.90;99.90;;;;;;5066781;28;20052;-70
2021/12/25 05:28:44;;;;;;;2.97;0.50;;;-3.60;99.90;;;;;;5070906;28;20122;-70
2021/12/25 05:31:12;;;;;;;1.58;0.50;;;-3.80;99.90;;;;;;5069470;28;20102;-70
2021/12/25 05:33:40;;;;;;;2.65;0.50;;;-3.80;99.90;;;;;;5058408;28;20036;-69
2021/12/25 05:36:06;;;;;;;0.85;0.47;;;-3.80;99.90;;;;;;5054952;28;20045;-70
2021/12/25 05:38:33;;;;;;;1.48;0.40;;;-3.20;99.90;;;;;;5042576;28;20475;-70
2021/12/25 05:40:59;;;;;;;2.92;0.40;;;-3.80;99.90;;;;;;5048007;28;20514;-69
2021/12/25 05:43:25;;;;;;;3.00;0.50;;;-3.90;99.90;;;;;;5060767;28;20119;-69
2021/12/25 05:45:51;;;;;;;1.63;0.88;;;-3.90;99.90;;;;;;5057695;28;20052;-70
2021/12/25 05:48:17;;;;;;;1.05;0.43;;;-3.90;99.90;;;;;;5021342;28;20036;-69
2021/12/25 05:50:42;;;;;;;0.65;0.40;;;-3.90;99.90;;;;;;5026840;28;20056;-69
2021/12/25 05:53:08;;;;;;;2.40;0.40;;;-3.00;99.90;;;;;;5066660;28;20135;-69
2021/12/25 05:55:34;;;;;;;2.08;0.40;;;-3.30;99.90;;;;;;5060523;28;20060;-69
2021/12/25 05:58:03;;;;;;;1.58;0.50;;;-3.10;99.90;;;;;;5068845;28;20073;-70
2021/12/25 06:00:30;;;;;;;1.48;0.50;;;-3.90;99.90;;;;;;5046300;28;20044;-69
2021/12/25 06:02:56;;;;;;;2.22;0.50;;;-3.00;99.90;;;;;;5051636;28;20057;-70
2021/12/25 06:05:23;;;;;;;1.23;0.60;;;-3.30;99.90;;;;;;5050723;28;20055;-69
2021/12/25 06:07:48;;;;;;;3.70;0.60;;;-3.20;99.90;;;;;;5068082;28;20039;-69
2021/12/25 06:10:14;;;;;;;2.08;0.63;;;-4.00;99.90;;;;;;5065109;28;20049;-70
2021/12/25 06:12:42;;;;;;;1.00;0.30;;;-4.00;99.90;;;;;;5053805;28;20064;-72
2021/12/25 06:15:13;;;;;;;3.85;0.60;;;-3.80;99.90;;;;;;5056718;28;20040;-68
2021/12/25 06:17:39;;;;;;;1.67;0.50;;;-4.00;99.90;;;;;;5074003;28;20050;-68
2021/12/25 06:20:06;;;;;;;3.00;0.68;;;-4.00;99.90;;;;;;5073608;28;20044;-69
2021/12/25 06:22:32;;;;;;;3.22;0.55;;;-3.90;99.90;;;;;;5073619;28;20044;-68
2021/12/25 06:24:58;;;;;;;3.55;0.60;;;-4.00;99.90;;;;;;5056150;28;20047;-68
2021/12/25 06:27:24;;;;;;;1.25;0.40;;;-3.90;99.90;;;;;;5073288;28;20449;-68
2021/12/25 06:29:50;;;;;;;2.05;0.50;;;-4.00;99.90;;;;;;5073058;28;20054;-68
2021/12/25 06:32:16;;;;;;;1.65;0.70;;;-4.00;99.90;;;;;;5055925;28;20044;-68
2021/12/25 06:34:42;;;;;;;2.65;0.90;;;-4.00;99.90;;;;;;5073009;28;20040;-68
2021/12/25 06:37:08;;;;;;;1.80;0.45;;;-4.00;99.90;;;;;;5055945;28;20082;-68
2021/12/25 06:39:34;;;;;;;1.08;0.52;;;-4.00;99.90;;;;;;5073299;28;20063;-68
2021/12/25 06:42:02;;;;;;;1.38;0.47;;;-4.00;99.90;;;;;;5056105;28;20074;-68
2021/12/25 06:44:29;;;;;;;3.72;0.68;;;-4.00;99.90;;;;;;5073715;28;20048;-68
2021/12/25 06:46:56;;;;;;;1.55;0.57;;;-4.10;99.90;;;;;;5076972;28;20119;-68
2021/12/25 06:49:22;;;;;;;1.20;0.60;;;-4.10;99.90;;;;;;5059899;28;20083;-68
2021/12/25 06:51:49;;;;;;;1.80;0.50;;;-4.10;99.90;;;;;;5054255;28;20063;-68
2021/12/25 06:54:15;;;;;;;1.15;0.50;;;-2.90;99.90;;;;;;5026560;28;20086;-68
2021/12/25 06:56:43;;;;;;;1.08;0.57;;;-4.00;99.90;;;;;;5076290;28;20036;-68
2021/12/25 06:59:10;;;;;;;1.92;0.45;;;-4.10;99.90;;;;;;5074005;28;20047;-68
2021/12/25 07:01:36;;;;;;;0.95;0.43;;;-4.10;99.90;;;;;;5076685;28;20125;-69
2021/12/25 07:04:03;;;;;;;5.43;1.42;;;-4.10;99.90;;;;;;5054004;28;20082;-68
2021/12/25 07:06:29;;;;;;;1.30;0.43;;;-4.10;99.90;;;;;;5059260;28;20048;-68
2021/12/25 07:08:55;;;;;;;2.85;0.50;;;-4.20;99.90;;;;;;5076649;28;20044;-68
2021/12/25 07:11:21;;;;;;;1.08;0.60;;;-3.00;99.90;;;;;;5059383;28;20059;-69
2021/12/25 07:13:47;;;;;;;1.17;0.50;;;-4.10;99.90;;;;;;5075640;28;20504;-68
2021/12/25 07:16:13;;;;;;;1.80;0.65;;;-4.10;99.90;;;;;;5059171;28;20051;-68
2021/12/25 07:18:39;;;;;;;1.05;0.70;;;-4.10;99.90;;;;;;5060402;28;20488;-68
2021/12/25 07:21:06;;;;;;;2.20;0.60;;;-4.10;99.90;;;;;;5093420;28;20043;-69
2021/12/25 07:23:32;;;;;;;2.63;0.60;;;-4.20;99.90;;;;;;5076080;28;20411;-69
2021/12/25 07:25:59;;;;;;;2.63;0.82;;;-4.20;99.90;;;;;;5059327;28;20047;-69
2021/12/25 07:28:25;;;;;;;3.05;0.68;;;-4.10;99.90;;;;;;5059171;28;20538;-69
2021/12/25 07:30:51;;;;;;;2.33;0.80;;;-3.90;99.90;;;;;;5041946;28;20050;-69
2021/12/25 07:33:18;;;;;;;4.45;0.82;;;-3.40;99.90;;;;;;5058824;28;20095;-70
2021/12/25 07:35:44;;;;;;;0.98;0.77;;;-3.60;99.90;;;;;;5075485;28;20066;-70
2021/12/25 07:38:10;;;;;;;2.05;0.70;;;-4.20;99.90;;;;;;5075201;28;20052;-69
2021/12/25 07:40:36;;;;;;;2.13;1.05;;;-4.20;99.90;;;;;;5076044;28;20044;-69
2021/12/25 07:43:03;;;;;;;4.68;0.88;;;-3.80;99.90;;;;;;5058566;28;20048;-69
2021/12/25 07:45:29;;;;;;;1.92;0.60;;;-4.20;99.90;;;;;;5059861;28;20571;-69
2021/12/25 07:48:00;;;;;;;2.95;0.70;;;-4.20;99.90;;;;;;5075970;28;20127;-69
2021/12/25 07:50:30;;;;;;;1.20;0.70;;;-4.20;99.90;;;;;;5075413;28;20040;-70
2021/12/25 07:52:56;;;;;;;9.02;1.35;;;-3.10;99.90;;;;;;5075346;28;20051;-70
2021/12/25 07:55:22;;;;;;;1.13;0.70;;;-4.20;99.90;;;;;;5058359;28;20051;-69
2021/12/25 07:57:48;;;;;;;2.15;0.70;;;-3.50;99.90;;;;;;5058061;28;20044;-69
2021/12/25 08:00:16;;;;;;;3.40;0.80;;;-4.20;99.90;;;;;;5058795;28;20048;-70
2021/12/25 08:02:46;;;;;;;1.45;0.68;;;-4.20;99.90;;;;;;5034400;28;20055;-69
2021/12/25 08:05:12;;;;;;;2.28;0.65;;;-4.20;99.90;;;;;;5057208;28;20052;-69
2021/12/25 08:07:38;;;;;;;4.18;0.80;;;-4.30;99.90;;;;;;5073523;28;20044;-69
2021/12/25 08:10:17;;;;;;;1.25;0.60;;;-3.40;99.90;;;;;;5058373;28;20458;-69
2021/12/25 08:12:45;;;;;;;2.25;0.60;;;-4.20;99.90;;;;;;5070424;28;20075;-69
2021/12/25 08:15:13;;;;;;;1.45;0.70;;;-4.20;99.90;;;;;;5058521;28;20453;-70
2021/12/25 08:17:39;;;;;;;1.10;0.70;;;-4.20;99.90;;;;;;5072569;28;20083;-69
2021/12/25 08:20:06;;;;;;;1.50;0.57;;;-3.80;99.90;;;;;;5075141;28;20044;-69
2021/12/25 08:22:32;;;;;;;5.30;0.88;;;-4.10;99.90;;;;;;5060715;28;20035;-69
2021/12/25 08:24:58;;;;;;;3.28;0.70;;;-4.10;99.90;;;;;;5069907;28;20450;-69
2021/12/25 08:27:24;;;;;;;1.45;0.85;;;-4.10;99.90;;;;;;5055085;28;20052;-70
2021/12/25 08:29:50;;;;;;;2.45;0.50;;;-4.00;99.90;;;;;;5058531;28;20044;-70
2021/12/25 08:32:16;;;;;;;3.17;0.70;;;-4.00;99.90;;;;;;5057400;28;20389;-70
2021/12/25 08:34:43;;;;;;;2.25;0.70;;;-3.90;99.90;;;;;;5057925;28;20052;-69
2021/12/25 08:37:09;;;;;;;4.22;0.90;;;-3.80;99.90;;;;;;5058565;28;20060;-70
2021/12/25 08:39:36;;;;;;;2.92;0.90;;;-3.70;99.90;;;;;;5074706;28;20047;-71
2021/12/25 08:42:04;;;;;;;2.58;1.00;;;-3.30;99.90;;;;;;5075465;28;20083;-70
2021/12/25 08:47:07;;;;;;;1.58;0.77;;;-3.50;99.90;;;;;;5071468;28;20052;-71
2021/12/25 08:49:35;;;;;;;2.72;0.70;;;-3.40;99.90;;;;;;5079615;28;20047;-71
2021/12/25 08:52:07;;;;;;;2.35;0.73;;;-3.30;99.90;;;;;;5059116;28;20184;-71
2021/12/25 08:54:32;;;;;;;;;;;-3.30;99.90;;;;;;5074975;28;20375;-71
2021/12/25 08:57:00;;;;;;;1.70;0.90;;;-3.20;99.90;;;;;;5070210;28;19942;-72
2021/12/25 08:59:26;;;;;;;2.97;0.68;;;-3.10;99.90;;;;;;5057725;28;20404;-72
2021/12/25 09:01:53;;;;;;;2.50;0.70;;;-3.10;99.90;;;;;;5073154;28;20077;-72
2021/12/25 09:04:18;;;;;;;1.02;0.68;;;-3.00;99.90;;;;;;5040337;28;20047;-72
2021/12/25 09:06:44;;;;;;;2.13;0.68;;;-3.00;99.90;;;;;;5073762;28;20095;-73
2021/12/25 09:09:11;;;;;;;3.35;0.65;;;-2.90;99.90;;;;;;5040743;28;20097;-72
2021/12/25 09:11:38;;;;;;;2.50;0.60;;;-2.60;99.90;;;;;;5056430;28;20482;-72
2021/12/25 09:14:05;;;;;;;2.70;0.95;;;-2.70;99.90;;;;;;5056044;28;20066;-73
2021/12/25 09:16:30;;;;;;;1.15;0.60;;;-2.70;99.90;;;;;;5072971;28;20052;-73
2021/12/25 09:18:56;;;;;;;1.48;0.80;;;-2.60;99.90;;;;;;5057526;28;20054;-73
2021/12/25 09:21:22;;;;;;;2.97;0.70;;;-2.60;99.90;;;;;;5073791;28;20442;-73
2021/12/25 09:23:48;;;;;;;3.30;0.70;;;-2.50;99.90;;;;;;5072846;28;20062;-73
2021/12/25 09:26:14;;;;;;;3.55;0.80;;;-2.50;99.90;;;;;;5071886;28;20055;-73
2021/12/25 09:28:40;;;;;;;2.03;0.52;;;-2.40;99.90;;;;;;5024796;28;20544;-74
2021/12/25 09:31:06;;;;;;;4.38;0.80;;;-2.40;99.90;;;;;;5045621;28;20052;-74
2021/12/25 09:33:33;;;;;;;1.08;0.80;;;-1.90;99.90;;;;;;5056049;28;20048;-74
2021/12/25 09:36:02;;;;;;;1.63;0.80;;;-2.20;99.90;;;;;;5069819;28;20047;-73
2021/12/25 09:38:28;;;;;;;6.03;0.88;;;-2.20;99.90;;;;;;5073509;28;20078;-73
2021/12/25 09:40:58;;;;;;;3.10;0.63;;;-2.10;99.90;;;;;;5073303;28;20530;-74
2021/12/25 09:43:25;;;;;;;2.30;0.70;;;-2.00;99.90;;;;;;5073958;28;20048;-75
2021/12/25 09:45:53;;;;;;;3.13;0.90;;;-0.80;99.90;;;;;;5060975;28;20060;-75
2021/12/25 09:48:19;;;;;;;3.28;0.80;;;-1.90;99.90;;;;;;5073049;28;20051;-75
2021/12/25 09:50:45;;;;;;;3.65;0.70;;;-1.90;99.90;;;;;;5071646;28;20045;-75
2021/12/25 09:53:13;;;;;;;3.83;0.90;;;-1.20;99.90;;;;;;5073013;28;20079;-75
2021/12/25 09:55:39;;;;;;;1.08;0.70;;;-1.80;99.90;;;;;;5055991;28;20056;-75
2021/12/25 09:58:06;;;;;;;2.95;1.50;;;-1.40;99.90;;;;;;5056813;28;20044;-75
2021/12/25 10:00:36;;;;;;;1.55;0.63;;;-1.20;99.90;;;;;;5073599;28;20048;-75
2021/12/25 10:03:02;;;;;;;4.28;0.93;;;-0.70;99.90;;;;;;5075624;28;20096;-76
2021/12/25 10:05:30;;;;;;;2.70;0.90;;;-0.80;99.90;;;;;;5047842;28;20080;-75
2021/12/25 10:08:12;;;;;;;1.88;0.88;;;-0.70;99.90;;;;;;5043954;28;20056;-75
2021/12/25 10:11:00;;;;;;;4.45;0.70;;;-1.50;99.90;;;;;;5073012;28;20500;-75
2021/12/25 10:13:35;;;;;;;6.15;0.75;;;-1.40;99.90;;;;;;5072597;28;20072;-73
2021/12/25 10:16:23;;;;;;;3.88;0.80;;;-1.40;99.90;;;;;;5071309;28;20495;-74
2021/12/25 10:18:50;;;;;;;1.00;0.70;;;-0.90;99.90;;;;;;5074105;28;20047;-73
2021/12/25 10:21:24;;;;;;;1.33;0.80;;;-1.40;99.90;;;;;;5052218;28;20119;-74
2021/12/25 10:24:07;;;;;;;3.60;0.80;;;-1.30;99.90;;;;;;5053286;28;20059;-73
2021/12/25 10:26:38;;;;;;;3.33;1.10;;;-1.20;99.90;;;;;;5057080;28;20559;-73
2021/12/25 10:29:26;;;;;;;2.65;0.90;;;-0.80;99.90;;;;;;5072444;28;20786;-74
2021/12/25 10:31:55;;;;;;;1.45;0.80;;;-1.10;99.90;;;;;;5054794;28;20070;-74
2021/12/25 10:34:24;;;;;;;1.35;0.77;;;-1.00;99.90;;;;;;5055197;28;20603;-74
2021/12/25 10:36:51;;;;;;;5.50;1.33;;;-0.30;99.90;;;;;;5072846;28;20036;-73
2021/12/25 10:39:28;;;;;;;1.85;0.93;;;-0.90;99.90;;;;;;5057045;28;20097;-74
2021/12/25 10:41:59;;;;;;;2.65;1.13;;;-0.80;99.90;;;;;;5056342;28;20048;-74
2021/12/25 10:44:36;;;;;;;10.35;2.42;;;-0.80;99.90;;;;;;5072496;28;20040;-74
2021/12/25 10:47:08;;;;;;;5.25;1.92;;;-0.70;99.90;;;;;;5056224;28;20097;-74
2021/12/25 10:49:43;;;;;;;8.10;2.75;;;-0.70;99.90;;;;;;5072880;28;20052;-74
2021/12/25 10:52:16;;;;;;;6.50;2.95;;;-0.60;99.90;;;;;;5049471;28;20036;-74
2021/12/25 10:54:46;;;;;;;3.60;0.93;;;-0.10;99.90;;;;;;5056071;28;20040;-74
2021/12/25 10:57:55;;;;;;;2.65;1.25;;;-0.50;99.90;;;;;;5072890;28;20064;-74
2021/12/25 11:00:21;;;;;;;2.33;1.25;;;-0.50;99.90;;;;;;5050774;28;20118;-74
2021/12/25 11:02:58;;;;;;;2.42;1.10;;;-0.40;99.90;;;;;;5086201;28;20038;-74
2021/12/25 11:05:33;;;;;;;1.55;1.10;;;-0.40;99.90;;;;;;5055902;28;20066;-74
2021/12/25 11:08:15;;;;;;;4.43;1.35;;;-0.30;99.90;;;;;;5072715;28;20044;-74
2021/12/25 11:10:47;;;;;;;4.07;0.90;;;-0.10;99.90;;;;;;5068744;28;20044;-74
2021/12/25 11:13:31;;;;;;;1.60;0.90;;;0.90;99.90;;;;;;5089661;28;20054;-74
2021/12/25 11:16:04;;;;;;;3.75;1.35;;;-0.20;99.90;;;;;;5067547;28;20072;-74
2021/12/25 11:18:47;;;;;;;4.88;1.10;;;0.40;99.90;;;;;;5072389;28;20040;-74
2021/12/25 11:21:13;;;;;;;3.10;1.00;;;-0.10;99.90;;;;;;5071834;28;20044;-75
2021/12/25 11:23:39;;;;;;;4.35;1.20;;;0.30;99.90;;;;;;5051778;28;20135;-74
2021/12/25 11:26:05;;;;;;;3.33;1.33;;;0.10;99.90;;;;;;5072376;28;20065;-75
2021/12/25 11:28:31;;;;;;;0.90;0.75;;;0.10;99.90;;;;;;5022543;28;20501;-75
2021/12/25 11:30:56;;;;;;;2.95;1.05;;;0.10;99.90;;;;;;5057717;28;20106;-75
2021/12/25 11:33:22;;;;;;;2.20;0.85;;;0.50;99.90;;;;;;5042500;28;20043;-75
2021/12/25 11:35:48;;;;;;;2.15;0.77;;;0.80;99.90;;;;;;5075723;28;20075;-75
2021/12/25 11:38:14;;;;;;;2.90;1.00;;;1.20;99.90;;;;;;5076013;28;20048;-75
2021/12/25 11:40:47;;;;;;;1.42;0.82;;;1.60;99.90;;;;;;5083132;28;20086;-75
2021/12/25 11:43:14;;;;;;;2.45;0.88;;;1.70;99.90;;;;;;5079420;28;20048;-74
2021/12/25 11:45:41;;;;;;;1.60;0.90;;;2.10;99.90;;;;;;5077102;28;20090;-75
2021/12/25 11:48:18;;;;;;;4.25;0.90;;;2.30;99.90;;;;;;5076062;28;20040;-75
2021/12/25 11:50:47;;;;;;;1.25;0.50;;;2.80;99.90;;;;;;5075370;28;20052;-75
2021/12/25 11:53:25;;;;;;;1.65;0.70;;;2.50;99.90;;;;;;5073411;28;20044;-75
2021/12/25 11:58:44;;;;;;;3.00;0.93;;;3.00;99.90;;;;;;5075511;28;20495;-75
2021/12/25 12:01:17;;;;;;;3.35;0.90;;;3.20;99.90;;;;;;5076105;28;20082;-75
2021/12/25 12:03:46;;;;;;;5.07;1.08;;;3.60;99.90;;;;;;5058691;28;20043;-75
2021/12/25 12:06:14;;;;;;;2.83;1.15;;;3.70;99.90;;;;;;5075889;28;20044;-75
2021/12/25 12:08:55;;;;;;;2.42;0.95;;;3.80;99.90;;;;;;5059262;28;20047;-75
2021/12/25 12:11:23;;;;;;;2.45;1.00;;;4.10;99.90;;;;;;5075345;28;20103;-75
2021/12/25 12:14:15;;;;;;;2.80;0.90;;;4.80;99.90;;;;;;5073910;28;20055;-75
2021/12/25 12:16:53;;;;;;;4.72;1.10;;;4.20;99.90;;;;;;5078019;28;20036;-75
2021/12/25 12:25:23;;;;;;;3.78;1.20;;;4.40;97.80;;;;;;5075759;28;20048;-75
2021/12/25 12:27:50;;;;;;;1.70;1.20;;;4.70;99.90;;;;;;5074981;28;20485;-75
2021/12/25 12:30:31;;;;;;;1.65;0.90;;;4.80;99.90;;;;;;5075261;28;20052;-75
2021/12/25 12:33:03;;;;;;;4.10;1.00;;;5.00;99.90;;;;;;5093032;28;20048;-75
2021/12/25 12:35:36;;;;;;;6.57;1.38;;;5.30;99.90;;;;;;5069797;28;20059;-76
2021/12/25 12:38:32;;;;;;;3.17;0.95;;;5.30;99.90;;;;;;5058520;28;20036;-75
2021/12/25 12:41:27;;;;;;;2.63;1.17;;;5.10;99.90;;;;;;5074799;28;20048;-75
2021/12/25 12:44:06;;;;;;;2.22;0.93;;;5.40;99.90;;;;;;5074439;28;20082;-76
2021/12/25 12:46:50;;;;;;;2.65;1.05;;;5.50;99.90;;;;;;5075475;28;20040;-76
2021/12/25 12:49:43;;;;;;;3.00;0.93;;;5.30;99.90;;;;;;5074730;28;20205;-75
2021/12/25 12:52:15;;;;;;;2.90;1.02;;;5.30;99.90;;;;;;5045652;28;20048;-75
2021/12/25 12:54:44;;;;;;;4.40;0.90;;;5.30;99.90;;;;;;5093353;28;20066;-75
2021/12/25 12:57:24;;;;;;;2.35;1.10;;;5.60;99.90;;;;;;5075204;28;20476;-75
2021/12/25 13:00:00;;;;;;;5.60;1.30;;;5.50;99.90;;;;;;5074274;28;20047;-75
2021/12/25 13:02:29;;;;;;;3.13;0.88;;;5.60;99.90;;;;;;5074553;28;20126;-75
2021/12/25 13:04:58;;;;;;;4.85;1.25;;;5.90;99.90;;;;;;5074700;28;20060;-76
2021/12/25 13:07:27;;;;;;;2.22;0.90;;;5.70;99.90;;;;;;5058047;28;20048;-75
2021/12/25 13:10:03;;;;;;;3.47;0.95;;;5.30;99.90;;;;;;5074713;28;20044;-75
2021/12/25 13:12:43;;;;;;;2.72;1.00;;;5.40;99.90;;;;;;5057157;28;20095;-75
2021/12/25 13:15:15;;;;;;;2.38;1.08;;;5.20;99.90;;;;;;5074278;28;20063;-75
2021/12/25 13:17:56;;;;;;;3.72;1.27;;;5.70;99.90;;;;;;5074939;28;20400;-75
2021/12/25 13:20:40;;;;;;;3.17;1.00;;;5.60;99.90;;;;;;5074519;28;20196;-75
2021/12/25 13:23:12;;;;;;;2.90;1.40;;;6.10;85.10;;;;;;5092089;28;20396;-75
2021/12/25 13:25:45;;;;;;;1.85;1.20;;;6.30;99.90;;;;;;5074866;28;20128;-75
2021/12/25 13:28:14;;;;;;;2.58;1.30;;;6.50;99.90;;;;;;5074886;28;20047;-75
2021/12/25 13:30:43;;;;;;;1.77;1.10;;;6.70;99.90;;;;;;5057661;28;20079;-75
2021/12/25 13:33:14;;;;;;;3.58;1.30;;;6.80;99.90;;;;;;5074131;28;20055;-75
2021/12/25 13:35:41;;;;;;;3.17;1.08;;;6.80;99.90;;;;;;5057604;28;20488;-75
2021/12/25 13:38:08;;;;;;;3.78;1.42;;;6.80;99.90;;;;;;5073851;28;20056;-75
2021/12/25 13:40:37;;;;;;;3.78;1.13;;;6.60;99.90;;;;;;5057333;28;20044;-75
2021/12/25 13:43:09;;;;;;;2.22;1.20;;;6.90;99.90;;;;;;5039990;28;20058;-75
2021/12/25 13:45:35;;;;;;;2.42;1.20;;;7.10;99.90;;;;;;5056696;28;20063;-74
2021/12/25 13:48:02;;;;;;;2.63;1.30;;;7.30;98.50;;;;;;5074330;28;20493;-75
2021/12/25 13:50:28;;;;;;;5.30;1.35;;;7.40;99.90;;;;;;5073908;28;20048;-75
2021/12/25 13:52:58;;;;;;;2.05;1.30;;;6.90;74.40;;;;;;5073739;28;20041;-75
2021/12/25 13:55:31;;;;;;;3.23;1.27;;;7.30;99.90;;;;;;5057140;28;20051;-75
2021/12/25 13:57:59;;;;;;;2.90;1.40;;;7.50;95.60;;;;;;5074294;28;20085;-75
2021/12/25 14:00:32;;;;;;;3.13;1.23;;;7.20;95.80;;;;;;5057494;28;20075;-75
2021/12/25 14:03:08;;;;;;;3.97;1.30;;;7.40;80.00;;;;;;5056691;28;20090;-75
2021/12/25 14:05:38;;;;;;;2.25;1.30;;;7.40;99.90;;;;;;5073892;28;20060;-75
2021/12/25 14:08:07;;;;;;;3.15;1.50;;;7.50;91.10;;;;;;5057240;28;20421;-75
2021/12/25 14:10:35;;;;;;;5.70;1.92;;;7.50;99.90;;;;;;5073904;28;20048;-75
2021/12/25 14:13:04;;;;;;;2.00;1.20;;;7.50;99.90;;;;;;5072850;28;20062;-75
2021/12/25 14:15:33;;;;;;;1.98;1.10;;;7.60;89.20;;;;;;5073797;28;20044;-75
2021/12/25 14:18:06;;;;;;;3.08;1.20;;;7.60;98.40;;;;;;5073896;28;20082;-75
2021/12/25 14:20:35;;;;;;;2.55;1.42;;;7.70;84.60;;;;;;5037553;28;20089;-75
2021/12/25 14:23:14;;;;;;;2.75;0.93;;;7.60;95.80;;;;;;5054721;28;20071;-75
2021/12/25 14:25:54;;;;;;;3.50;1.63;;;7.70;99.90;;;;;;5073295;28;20485;-75
2021/12/25 14:28:25;;;;;;;3.55;1.35;;;7.70;65.60;;;;;;5056808;28;20044;-75